sensor_id;sensor_type;location;lat;lon;timestamp;P1;durP1;ratioP1;P2;durP2;ratioP2
40951;SDS011;26682;51.660;19.338;2023-12-20T00:02:12;22.73;;;17.60;;
40951;SDS011;26682;51.660;19.338;2023-12-20T00:04:54;21.52;;;16.98;;
40951;SDS011;26682;51.660;19.338;2023-12-20T00:07:37;22.52;;;16.55;;
40951;SDS011;26682;51.660;19.338;2023-12-20T00:10:19;23.27;;;16.85;;
40951;SDS011;26682;51.660;19.338;2023-12-20T00:13:02;23.20;;;15.35;;
40951;SDS011;26682;51.660;19.338;2023-12-20T00:15:45;22.17;;;16.58;;
40951;SDS011;26682;51.660;19.338;2023-12-20T00:18:27;21.52;;;15.52;;
40951;SDS011;26682;51.660;19.338;2023-12-20T00:21:09;25.60;;;17.75;;
40951;SDS011;26682;51.660;19.338;2023-12-20T00:23:51;22.88;;;17.08;;
40951;SDS011;26682;51.660;19.338;2023-12-20T00:26:34;25.95;;;20.60;;
40951;SDS011;26682;51.660;19.338;2023-12-20T00:29:16;28.45;;;20.17;;
40951;SDS011;26682;51.660;19.338;2023-12-20T00:31:59;23.75;;;17.02;;
40951;SDS011;26682;51.660;19.338;2023-12-20T00:34:42;21.63;;;16.58;;
40951;SDS011;26682;51.660;19.338;2023-12-20T00:37:25;27.02;;;18.95;;
40951;SDS011;26682;51.660;19.338;2023-12-20T00:40:07;21.13;;;15.93;;
40951;SDS011;26682;51.660;19.338;2023-12-20T00:42:50;21.40;;;16.30;;
40951;SDS011;26682;51.660;19.338;2023-12-20T00:45:33;23.30;;;16.77;;
40951;SDS011;26682;51.660;19.338;2023-12-20T00:48:15;24.60;;;17.23;;
40951;SDS011;26682;51.660;19.338;2023-12-20T00:50:58;25.10;;;17.23;;
40951;SDS011;26682;51.660;19.338;2023-12-20T00:53:41;21.90;;;17.08;;
40951;SDS011;26682;51.660;19.338;2023-12-20T00:56:23;25.30;;;17.40;;
40951;SDS011;26682;51.660;19.338;2023-12-20T00:59:06;21.98;;;17.45;;
40951;SDS011;26682;51.660;19.338;2023-12-20T01:01:48;20.65;;;16.95;;
40951;SDS011;26682;51.660;19.338;2023-12-20T01:04:30;22.65;;;17.58;;
40951;SDS011;26682;51.660;19.338;2023-12-20T01:07:13;25.30;;;18.15;;
40951;SDS011;26682;51.660;19.338;2023-12-20T01:09:55;22.58;;;17.00;;
40951;SDS011;26682;51.660;19.338;2023-12-20T01:12:38;20.98;;;16.30;;
40951;SDS011;26682;51.660;19.338;2023-12-20T01:15:20;26.63;;;19.45;;
40951;SDS011;26682;51.660;19.338;2023-12-20T01:18:03;22.58;;;16.63;;
40951;SDS011;26682;51.660;19.338;2023-12-20T01:20:45;22.42;;;16.77;;
40951;SDS011;26682;51.660;19.338;2023-12-20T01:23:33;23.35;;;18.45;;
40951;SDS011;26682;51.660;19.338;2023-12-20T01:26:15;20.45;;;15.80;;
40951;SDS011;26682;51.660;19.338;2023-12-20T01:28:58;21.60;;;15.98;;
40951;SDS011;26682;51.660;19.338;2023-12-20T01:31:41;20.55;;;15.82;;
40951;SDS011;26682;51.660;19.338;2023-12-20T01:34:23;22.58;;;16.27;;
40951;SDS011;26682;51.660;19.338;2023-12-20T01:37:06;21.40;;;16.02;;
40951;SDS011;26682;51.660;19.338;2023-12-20T01:39:48;21.73;;;16.63;;
40951;SDS011;26682;51.660;19.338;2023-12-20T01:42:31;22.88;;;17.42;;
40951;SDS011;26682;51.660;19.338;2023-12-20T01:45:13;22.67;;;17.02;;
40951;SDS011;26682;51.660;19.338;2023-12-20T01:47:57;23.13;;;16.95;;
40951;SDS011;26682;51.660;19.338;2023-12-20T01:50:41;20.63;;;16.30;;
40951;SDS011;26682;51.660;19.338;2023-12-20T01:53:25;18.33;;;13.77;;
40951;SDS011;26682;51.660;19.338;2023-12-20T01:56:10;21.25;;;16.38;;
40951;SDS011;26682;51.660;19.338;2023-12-20T01:58:53;21.38;;;15.95;;
40951;SDS011;26682;51.660;19.338;2023-12-20T02:01:37;19.17;;;13.20;;
40951;SDS011;26682;51.660;19.338;2023-12-20T02:04:20;17.17;;;13.52;;
40951;SDS011;26682;51.660;19.338;2023-12-20T02:07:03;16.60;;;13.30;;
40951;SDS011;26682;51.660;19.338;2023-12-20T02:09:46;18.90;;;13.50;;
40951;SDS011;26682;51.660;19.338;2023-12-20T02:12:28;17.83;;;13.80;;
40951;SDS011;26682;51.660;19.338;2023-12-20T02:15:11;16.10;;;13.52;;
40951;SDS011;26682;51.660;19.338;2023-12-20T02:17:53;18.55;;;14.25;;
40951;SDS011;26682;51.660;19.338;2023-12-20T02:20:36;21.33;;;15.63;;
40951;SDS011;26682;51.660;19.338;2023-12-20T02:23:19;20.23;;;15.85;;
40951;SDS011;26682;51.660;19.338;2023-12-20T02:26:02;20.35;;;15.38;;
40951;SDS011;26682;51.660;19.338;2023-12-20T02:28:46;21.23;;;14.98;;
40951;SDS011;26682;51.660;19.338;2023-12-20T02:31:28;20.67;;;15.85;;
40951;SDS011;26682;51.660;19.338;2023-12-20T02:34:10;19.42;;;15.75;;
40951;SDS011;26682;51.660;19.338;2023-12-20T02:36:53;18.83;;;14.15;;
40951;SDS011;26682;51.660;19.338;2023-12-20T02:39:36;19.55;;;16.00;;
40951;SDS011;26682;51.660;19.338;2023-12-20T02:42:18;19.95;;;15.57;;
40951;SDS011;26682;51.660;19.338;2023-12-20T02:45:00;19.83;;;15.27;;
40951;SDS011;26682;51.660;19.338;2023-12-20T02:47:43;19.35;;;15.15;;
40951;SDS011;26682;51.660;19.338;2023-12-20T02:50:25;17.55;;;14.75;;
40951;SDS011;26682;51.660;19.338;2023-12-20T02:53:08;16.63;;;14.02;;
40951;SDS011;26682;51.660;19.338;2023-12-20T02:55:50;18.38;;;14.80;;
40951;SDS011;26682;51.660;19.338;2023-12-20T02:58:33;18.30;;;13.38;;
40951;SDS011;26682;51.660;19.338;2023-12-20T03:01:16;18.45;;;14.45;;
40951;SDS011;26682;51.660;19.338;2023-12-20T03:03:58;16.02;;;12.98;;
40951;SDS011;26682;51.660;19.338;2023-12-20T03:06:40;15.48;;;12.80;;
40951;SDS011;26682;51.660;19.338;2023-12-20T03:09:23;18.63;;;13.93;;
40951;SDS011;26682;51.660;19.338;2023-12-20T03:12:05;18.33;;;13.80;;
40951;SDS011;26682;51.660;19.338;2023-12-20T03:14:48;18.30;;;13.88;;
40951;SDS011;26682;51.660;19.338;2023-12-20T03:17:31;14.52;;;12.27;;
40951;SDS011;26682;51.660;19.338;2023-12-20T03:20:13;16.73;;;12.93;;
40951;SDS011;26682;51.660;19.338;2023-12-20T03:22:56;16.17;;;13.20;;
40951;SDS011;26682;51.660;19.338;2023-12-20T03:25:38;16.15;;;12.27;;
40951;SDS011;26682;51.660;19.338;2023-12-20T03:28:20;16.77;;;12.63;;
40951;SDS011;26682;51.660;19.338;2023-12-20T03:31:03;15.63;;;11.55;;
40951;SDS011;26682;51.660;19.338;2023-12-20T03:33:45;17.98;;;12.35;;
40951;SDS011;26682;51.660;19.338;2023-12-20T03:36:28;15.05;;;12.00;;
40951;SDS011;26682;51.660;19.338;2023-12-20T03:39:10;15.20;;;12.30;;
40951;SDS011;26682;51.660;19.338;2023-12-20T03:41:53;14.23;;;11.52;;
40951;SDS011;26682;51.660;19.338;2023-12-20T03:44:38;13.35;;;11.15;;
40951;SDS011;26682;51.660;19.338;2023-12-20T03:47:21;13.57;;;10.80;;
40951;SDS011;26682;51.660;19.338;2023-12-20T03:50:03;14.10;;;11.80;;
40951;SDS011;26682;51.660;19.338;2023-12-20T03:52:46;16.25;;;11.00;;
40951;SDS011;26682;51.660;19.338;2023-12-20T03:55:28;12.75;;;10.25;;
40951;SDS011;26682;51.660;19.338;2023-12-20T03:58:11;13.15;;;10.10;;
40951;SDS011;26682;51.660;19.338;2023-12-20T04:00:53;12.50;;;9.63;;
40951;SDS011;26682;51.660;19.338;2023-12-20T04:03:35;12.55;;;9.60;;
40951;SDS011;26682;51.660;19.338;2023-12-20T04:06:18;14.95;;;10.30;;
40951;SDS011;26682;51.660;19.338;2023-12-20T04:09:01;14.98;;;11.40;;
40951;SDS011;26682;51.660;19.338;2023-12-20T04:11:43;12.18;;;9.82;;
40951;SDS011;26682;51.660;19.338;2023-12-20T04:14:26;12.40;;;9.85;;
40951;SDS011;26682;51.660;19.338;2023-12-20T04:17:08;13.68;;;9.25;;
40951;SDS011;26682;51.660;19.338;2023-12-20T04:19:51;10.63;;;8.20;;
40951;SDS011;26682;51.660;19.338;2023-12-20T04:22:33;11.77;;;9.52;;
40951;SDS011;26682;51.660;19.338;2023-12-20T04:25:16;11.10;;;8.70;;
40951;SDS011;26682;51.660;19.338;2023-12-20T04:27:58;9.93;;;8.85;;
40951;SDS011;26682;51.660;19.338;2023-12-20T04:30:41;10.38;;;8.35;;
40951;SDS011;26682;51.660;19.338;2023-12-20T04:33:24;10.52;;;9.10;;
40951;SDS011;26682;51.660;19.338;2023-12-20T04:36:06;10.98;;;9.18;;
40951;SDS011;26682;51.660;19.338;2023-12-20T04:38:50;11.52;;;9.48;;
40951;SDS011;26682;51.660;19.338;2023-12-20T04:41:33;12.65;;;10.65;;
40951;SDS011;26682;51.660;19.338;2023-12-20T04:44:15;11.40;;;9.90;;
40951;SDS011;26682;51.660;19.338;2023-12-20T04:46:58;12.43;;;10.35;;
40951;SDS011;26682;51.660;19.338;2023-12-20T04:49:40;12.10;;;9.88;;
40951;SDS011;26682;51.660;19.338;2023-12-20T04:52:22;15.05;;;10.75;;
40951;SDS011;26682;51.660;19.338;2023-12-20T04:55:05;12.50;;;9.60;;
40951;SDS011;26682;51.660;19.338;2023-12-20T04:57:48;13.50;;;10.00;;
40951;SDS011;26682;51.660;19.338;2023-12-20T05:00:30;9.63;;;8.63;;
40951;SDS011;26682;51.660;19.338;2023-12-20T05:03:13;9.93;;;8.15;;
40951;SDS011;26682;51.660;19.338;2023-12-20T05:05:55;10.57;;;7.78;;
40951;SDS011;26682;51.660;19.338;2023-12-20T05:08:38;8.60;;;7.47;;
40951;SDS011;26682;51.660;19.338;2023-12-20T05:11:20;8.32;;;7.18;;
40951;SDS011;26682;51.660;19.338;2023-12-20T05:14:03;10.88;;;8.18;;
40951;SDS011;26682;51.660;19.338;2023-12-20T05:16:45;9.25;;;7.57;;
40951;SDS011;26682;51.660;19.338;2023-12-20T05:19:28;8.55;;;7.03;;
40951;SDS011;26682;51.660;19.338;2023-12-20T05:22:10;7.93;;;6.60;;
40951;SDS011;26682;51.660;19.338;2023-12-20T05:24:53;9.40;;;6.53;;
40951;SDS011;26682;51.660;19.338;2023-12-20T05:27:36;9.85;;;7.55;;
40951;SDS011;26682;51.660;19.338;2023-12-20T05:30:18;7.00;;;5.78;;
40951;SDS011;26682;51.660;19.338;2023-12-20T05:33:01;9.18;;;5.80;;
40951;SDS011;26682;51.660;19.338;2023-12-20T05:35:43;8.20;;;6.38;;
40951;SDS011;26682;51.660;19.338;2023-12-20T05:38:26;8.90;;;7.05;;
40951;SDS011;26682;51.660;19.338;2023-12-20T05:41:08;8.63;;;6.97;;
40951;SDS011;26682;51.660;19.338;2023-12-20T05:43:51;11.10;;;6.70;;
40951;SDS011;26682;51.660;19.338;2023-12-20T05:46:33;16.10;;;9.88;;
40951;SDS011;26682;51.660;19.338;2023-12-20T05:49:15;19.60;;;11.02;;
40951;SDS011;26682;51.660;19.338;2023-12-20T05:51:58;13.82;;;9.18;;
40951;SDS011;26682;51.660;19.338;2023-12-20T05:54:40;16.67;;;10.48;;
40951;SDS011;26682;51.660;19.338;2023-12-20T05:57:23;14.32;;;10.40;;
40951;SDS011;26682;51.660;19.338;2023-12-20T06:00:06;13.73;;;8.95;;
40951;SDS011;26682;51.660;19.338;2023-12-20T06:02:55;14.13;;;9.57;;
40951;SDS011;26682;51.660;19.338;2023-12-20T06:05:37;14.13;;;9.00;;
40951;SDS011;26682;51.660;19.338;2023-12-20T06:08:20;14.18;;;10.27;;
40951;SDS011;26682;51.660;19.338;2023-12-20T06:11:02;13.95;;;9.02;;
40951;SDS011;26682;51.660;19.338;2023-12-20T06:13:45;12.35;;;8.80;;
40951;SDS011;26682;51.660;19.338;2023-12-20T06:16:27;14.98;;;9.55;;
40951;SDS011;26682;51.660;19.338;2023-12-20T06:19:10;16.60;;;9.88;;
40951;SDS011;26682;51.660;19.338;2023-12-20T06:21:52;13.15;;;8.55;;
40951;SDS011;26682;51.660;19.338;2023-12-20T06:24:35;14.25;;;8.73;;
40951;SDS011;26682;51.660;19.338;2023-12-20T06:27:18;14.27;;;9.32;;
40951;SDS011;26682;51.660;19.338;2023-12-20T06:30:00;17.17;;;10.05;;
40951;SDS011;26682;51.660;19.338;2023-12-20T06:32:43;13.23;;;9.50;;
40951;SDS011;26682;51.660;19.338;2023-12-20T06:35:25;13.57;;;9.32;;
40951;SDS011;26682;51.660;19.338;2023-12-20T06:38:07;10.93;;;8.23;;
40951;SDS011;26682;51.660;19.338;2023-12-20T06:40:51;11.98;;;7.43;;
40951;SDS011;26682;51.660;19.338;2023-12-20T06:43:33;11.07;;;7.43;;
40951;SDS011;26682;51.660;19.338;2023-12-20T06:46:30;14.52;;;8.60;;
40951;SDS011;26682;51.660;19.338;2023-12-20T06:49:13;9.75;;;7.53;;
40951;SDS011;26682;51.660;19.338;2023-12-20T06:51:56;8.10;;;7.10;;
40951;SDS011;26682;51.660;19.338;2023-12-20T06:54:38;10.70;;;8.32;;
40951;SDS011;26682;51.660;19.338;2023-12-20T06:57:21;11.60;;;8.57;;
40951;SDS011;26682;51.660;19.338;2023-12-20T07:00:04;12.35;;;9.13;;
40951;SDS011;26682;51.660;19.338;2023-12-20T07:02:47;15.15;;;10.85;;
40951;SDS011;26682;51.660;19.338;2023-12-20T07:05:30;12.20;;;9.00;;
40951;SDS011;26682;51.660;19.338;2023-12-20T07:08:12;16.90;;;12.93;;
40951;SDS011;26682;51.660;19.338;2023-12-20T07:10:56;15.82;;;11.93;;
40951;SDS011;26682;51.660;19.338;2023-12-20T07:13:39;13.95;;;11.18;;
40951;SDS011;26682;51.660;19.338;2023-12-20T07:16:22;15.68;;;12.30;;
40951;SDS011;26682;51.660;19.338;2023-12-20T07:19:04;15.40;;;12.52;;
40951;SDS011;26682;51.660;19.338;2023-12-20T07:21:47;18.13;;;11.95;;
40951;SDS011;26682;51.660;19.338;2023-12-20T07:24:29;17.58;;;14.02;;
40951;SDS011;26682;51.660;19.338;2023-12-20T07:27:12;21.25;;;16.15;;
40951;SDS011;26682;51.660;19.338;2023-12-20T07:29:54;19.20;;;15.68;;
40951;SDS011;26682;51.660;19.338;2023-12-20T07:32:37;18.52;;;13.45;;
40951;SDS011;26682;51.660;19.338;2023-12-20T07:35:19;19.25;;;14.45;;
40951;SDS011;26682;51.660;19.338;2023-12-20T07:38:02;17.73;;;14.20;;
40951;SDS011;26682;51.660;19.338;2023-12-20T07:40:45;16.95;;;13.02;;
40951;SDS011;26682;51.660;19.338;2023-12-20T07:43:27;16.85;;;13.57;;
40951;SDS011;26682;51.660;19.338;2023-12-20T07:46:10;15.07;;;12.63;;
40951;SDS011;26682;51.660;19.338;2023-12-20T07:48:53;18.65;;;14.45;;
40951;SDS011;26682;51.660;19.338;2023-12-20T07:51:36;18.30;;;13.93;;
40951;SDS011;26682;51.660;19.338;2023-12-20T07:54:18;18.35;;;14.43;;
40951;SDS011;26682;51.660;19.338;2023-12-20T07:57:00;16.10;;;12.27;;
40951;SDS011;26682;51.660;19.338;2023-12-20T07:59:43;20.73;;;14.40;;
40951;SDS011;26682;51.660;19.338;2023-12-20T08:02:26;19.67;;;14.88;;
40951;SDS011;26682;51.660;19.338;2023-12-20T08:05:08;17.70;;;14.75;;
40951;SDS011;26682;51.660;19.338;2023-12-20T08:07:51;21.10;;;15.40;;
40951;SDS011;26682;51.660;19.338;2023-12-20T08:10:34;21.75;;;17.45;;
40951;SDS011;26682;51.660;19.338;2023-12-20T08:13:17;21.83;;;16.05;;
40951;SDS011;26682;51.660;19.338;2023-12-20T08:16:00;23.35;;;15.38;;
40951;SDS011;26682;51.660;19.338;2023-12-20T08:18:47;19.67;;;15.60;;
40951;SDS011;26682;51.660;19.338;2023-12-20T08:21:29;17.63;;;13.38;;
40951;SDS011;26682;51.660;19.338;2023-12-20T08:24:15;20.15;;;14.77;;
40951;SDS011;26682;51.660;19.338;2023-12-20T08:26:57;17.00;;;13.35;;
40951;SDS011;26682;51.660;19.338;2023-12-20T08:29:40;20.60;;;14.77;;
40951;SDS011;26682;51.660;19.338;2023-12-20T08:32:25;15.95;;;12.57;;
40951;SDS011;26682;51.660;19.338;2023-12-20T08:35:09;17.75;;;12.95;;
40951;SDS011;26682;51.660;19.338;2023-12-20T08:37:51;17.20;;;12.75;;
40951;SDS011;26682;51.660;19.338;2023-12-20T08:40:34;15.57;;;11.50;;
40951;SDS011;26682;51.660;19.338;2023-12-20T08:43:16;15.40;;;11.68;;
40951;SDS011;26682;51.660;19.338;2023-12-20T08:45:59;15.60;;;11.18;;
40951;SDS011;26682;51.660;19.338;2023-12-20T08:48:42;14.18;;;11.63;;
40951;SDS011;26682;51.660;19.338;2023-12-20T08:51:24;17.52;;;12.68;;
40951;SDS011;26682;51.660;19.338;2023-12-20T08:54:07;17.27;;;13.70;;
40951;SDS011;26682;51.660;19.338;2023-12-20T08:56:50;18.00;;;14.55;;
40951;SDS011;26682;51.660;19.338;2023-12-20T08:59:32;26.33;;;18.25;;
40951;SDS011;26682;51.660;19.338;2023-12-20T09:02:18;20.70;;;15.80;;
40951;SDS011;26682;51.660;19.338;2023-12-20T09:05:00;17.70;;;13.80;;
40951;SDS011;26682;51.660;19.338;2023-12-20T09:07:43;21.77;;;16.80;;
40951;SDS011;26682;51.660;19.338;2023-12-20T09:10:28;20.48;;;14.77;;
40951;SDS011;26682;51.660;19.338;2023-12-20T09:13:11;25.33;;;15.20;;
40951;SDS011;26682;51.660;19.338;2023-12-20T09:15:54;24.92;;;16.33;;
40951;SDS011;26682;51.660;19.338;2023-12-20T09:18:38;21.95;;;15.73;;
40951;SDS011;26682;51.660;19.338;2023-12-20T09:21:23;17.65;;;13.60;;
40951;SDS011;26682;51.660;19.338;2023-12-20T09:24:11;14.20;;;11.20;;
40951;SDS011;26682;51.660;19.338;2023-12-20T09:26:53;13.82;;;11.20;;
40951;SDS011;26682;51.660;19.338;2023-12-20T09:29:36;15.50;;;11.40;;
40951;SDS011;26682;51.660;19.338;2023-12-20T09:32:18;13.68;;;11.00;;
40951;SDS011;26682;51.660;19.338;2023-12-20T09:35:02;13.52;;;10.50;;
40951;SDS011;26682;51.660;19.338;2023-12-20T09:37:48;12.88;;;10.38;;
40951;SDS011;26682;51.660;19.338;2023-12-20T09:40:32;13.25;;;10.93;;
40951;SDS011;26682;51.660;19.338;2023-12-20T09:43:15;15.57;;;12.15;;
40951;SDS011;26682;51.660;19.338;2023-12-20T09:46:05;12.02;;;9.38;;
40951;SDS011;26682;51.660;19.338;2023-12-20T09:48:49;13.25;;;9.48;;
40951;SDS011;26682;51.660;19.338;2023-12-20T09:51:32;13.57;;;10.63;;
40951;SDS011;26682;51.660;19.338;2023-12-20T09:54:16;12.40;;;9.50;;
40951;SDS011;26682;51.660;19.338;2023-12-20T09:56:59;11.07;;;9.00;;
40951;SDS011;26682;51.660;19.338;2023-12-20T09:59:42;10.98;;;8.48;;
40951;SDS011;26682;51.660;19.338;2023-12-20T10:02:25;10.20;;;8.23;;
40951;SDS011;26682;51.660;19.338;2023-12-20T10:05:09;10.70;;;8.40;;
40951;SDS011;26682;51.660;19.338;2023-12-20T10:08:01;10.27;;;7.38;;
40951;SDS011;26682;51.660;19.338;2023-12-20T10:10:45;10.98;;;7.80;;
40951;SDS011;26682;51.660;19.338;2023-12-20T10:13:29;8.93;;;7.10;;
40951;SDS011;26682;51.660;19.338;2023-12-20T10:16:12;7.85;;;5.90;;
40951;SDS011;26682;51.660;19.338;2023-12-20T10:18:54;8.70;;;6.80;;
40951;SDS011;26682;51.660;19.338;2023-12-20T10:21:37;7.70;;;6.72;;
40951;SDS011;26682;51.660;19.338;2023-12-20T10:24:20;9.88;;;6.53;;
40951;SDS011;26682;51.660;19.338;2023-12-20T10:27:06;7.25;;;6.22;;
40951;SDS011;26682;51.660;19.338;2023-12-20T10:29:49;7.78;;;5.90;;
40951;SDS011;26682;51.660;19.338;2023-12-20T10:32:32;7.22;;;5.97;;
40951;SDS011;26682;51.660;19.338;2023-12-20T10:35:14;7.97;;;6.30;;
40951;SDS011;26682;51.660;19.338;2023-12-20T10:37:57;6.07;;;5.15;;
40951;SDS011;26682;51.660;19.338;2023-12-20T10:40:42;7.07;;;6.10;;
40951;SDS011;26682;51.660;19.338;2023-12-20T10:43:27;5.97;;;5.20;;
40951;SDS011;26682;51.660;19.338;2023-12-20T10:46:13;6.40;;;5.43;;
40951;SDS011;26682;51.660;19.338;2023-12-20T10:48:56;9.90;;;6.80;;
40951;SDS011;26682;51.660;19.338;2023-12-20T10:51:39;10.10;;;7.72;;
40951;SDS011;26682;51.660;19.338;2023-12-20T10:54:22;8.40;;;7.47;;
40951;SDS011;26682;51.660;19.338;2023-12-20T10:57:05;9.30;;;7.57;;
40951;SDS011;26682;51.660;19.338;2023-12-20T10:59:48;10.90;;;8.57;;
40951;SDS011;26682;51.660;19.338;2023-12-20T11:05:25;14.10;;;8.85;;
40951;SDS011;26682;51.660;19.338;2023-12-20T11:08:35;11.38;;;8.38;;
40951;SDS011;26682;51.660;19.338;2023-12-20T11:11:36;9.38;;;7.38;;
40951;SDS011;26682;51.660;19.338;2023-12-20T11:14:48;11.93;;;7.97;;
40951;SDS011;26682;51.660;19.338;2023-12-20T11:17:33;14.15;;;8.43;;
40951;SDS011;26682;51.660;19.338;2023-12-20T11:20:16;11.50;;;8.15;;
40951;SDS011;26682;51.660;19.338;2023-12-20T11:22:58;9.57;;;7.20;;
40951;SDS011;26682;51.660;19.338;2023-12-20T11:25:54;8.43;;;6.57;;
40951;SDS011;26682;51.660;19.338;2023-12-20T11:28:40;10.63;;;8.10;;
40951;SDS011;26682;51.660;19.338;2023-12-20T11:31:23;10.93;;;7.22;;
40951;SDS011;26682;51.660;19.338;2023-12-20T11:34:15;9.10;;;7.50;;
40951;SDS011;26682;51.660;19.338;2023-12-20T11:37:00;11.85;;;9.35;;
40951;SDS011;26682;51.660;19.338;2023-12-20T11:39:44;8.90;;;7.13;;
40951;SDS011;26682;51.660;19.338;2023-12-20T11:42:27;9.27;;;8.07;;
40951;SDS011;26682;51.660;19.338;2023-12-20T11:45:13;10.00;;;7.60;;
40951;SDS011;26682;51.660;19.338;2023-12-20T11:47:57;9.80;;;7.50;;
40951;SDS011;26682;51.660;19.338;2023-12-20T11:50:40;9.40;;;6.65;;
40951;SDS011;26682;51.660;19.338;2023-12-20T11:53:23;10.57;;;7.57;;
40951;SDS011;26682;51.660;19.338;2023-12-20T11:56:05;11.65;;;7.82;;
40951;SDS011;26682;51.660;19.338;2023-12-20T11:58:48;10.20;;;7.68;;
40951;SDS011;26682;51.660;19.338;2023-12-20T12:01:32;12.82;;;8.32;;
40951;SDS011;26682;51.660;19.338;2023-12-20T12:04:15;10.27;;;8.10;;
40951;SDS011;26682;51.660;19.338;2023-12-20T12:06:59;11.77;;;8.90;;
40951;SDS011;26682;51.660;19.338;2023-12-20T12:09:43;10.45;;;8.13;;
40951;SDS011;26682;51.660;19.338;2023-12-20T12:12:25;10.55;;;7.28;;
40951;SDS011;26682;51.660;19.338;2023-12-20T12:15:09;9.23;;;7.38;;
40951;SDS011;26682;51.660;19.338;2023-12-20T12:17:55;9.93;;;8.35;;
40951;SDS011;26682;51.660;19.338;2023-12-20T12:20:38;11.50;;;7.35;;
40951;SDS011;26682;51.660;19.338;2023-12-20T12:23:24;13.07;;;8.98;;
40951;SDS011;26682;51.660;19.338;2023-12-20T12:26:06;12.40;;;8.40;;
40951;SDS011;26682;51.660;19.338;2023-12-20T12:28:49;13.85;;;9.45;;
40951;SDS011;26682;51.660;19.338;2023-12-20T12:31:33;13.02;;;9.20;;
40951;SDS011;26682;51.660;19.338;2023-12-20T12:34:15;14.80;;;10.25;;
40951;SDS011;26682;51.660;19.338;2023-12-20T12:37:00;13.93;;;9.63;;
40951;SDS011;26682;51.660;19.338;2023-12-20T12:39:43;9.80;;;8.55;;
40951;SDS011;26682;51.660;19.338;2023-12-20T12:42:25;12.13;;;9.38;;
40951;SDS011;26682;51.660;19.338;2023-12-20T12:45:10;11.40;;;8.57;;
40951;SDS011;26682;51.660;19.338;2023-12-20T12:47:53;13.35;;;9.23;;
40951;SDS011;26682;51.660;19.338;2023-12-20T12:50:36;9.73;;;7.32;;
40951;SDS011;26682;51.660;19.338;2023-12-20T12:53:19;12.73;;;9.15;;
40951;SDS011;26682;51.660;19.338;2023-12-20T12:56:02;13.15;;;9.18;;
40951;SDS011;26682;51.660;19.338;2023-12-20T12:58:47;14.77;;;9.23;;
40951;SDS011;26682;51.660;19.338;2023-12-20T13:01:30;7.97;;;6.43;;
40951;SDS011;26682;51.660;19.338;2023-12-20T13:04:12;9.25;;;6.05;;
40951;SDS011;26682;51.660;19.338;2023-12-20T13:06:55;10.07;;;5.82;;
40951;SDS011;26682;51.660;19.338;2023-12-20T13:09:39;9.80;;;6.70;;
40951;SDS011;26682;51.660;19.338;2023-12-20T13:12:22;10.73;;;7.10;;
40951;SDS011;26682;51.660;19.338;2023-12-20T13:15:05;15.00;;;8.30;;
40951;SDS011;26682;51.660;19.338;2023-12-20T13:17:47;14.95;;;7.40;;
40951;SDS011;26682;51.660;19.338;2023-12-20T13:20:30;12.80;;;7.95;;
40951;SDS011;26682;51.660;19.338;2023-12-20T13:23:13;8.73;;;6.30;;
40951;SDS011;26682;51.660;19.338;2023-12-20T13:25:56;13.77;;;7.30;;
40951;SDS011;26682;51.660;19.338;2023-12-20T13:28:38;9.20;;;6.63;;
40951;SDS011;26682;51.660;19.338;2023-12-20T13:31:21;16.10;;;8.85;;
40951;SDS011;26682;51.660;19.338;2023-12-20T13:34:04;11.32;;;7.28;;
40951;SDS011;26682;51.660;19.338;2023-12-20T13:36:47;16.20;;;10.63;;
40951;SDS011;26682;51.660;19.338;2023-12-20T13:39:31;15.48;;;10.02;;
40951;SDS011;26682;51.660;19.338;2023-12-20T13:42:15;18.20;;;9.88;;
40951;SDS011;26682;51.660;19.338;2023-12-20T13:44:57;13.23;;;7.53;;
40951;SDS011;26682;51.660;19.338;2023-12-20T13:47:40;12.82;;;9.10;;
40951;SDS011;26682;51.660;19.338;2023-12-20T13:50:23;12.13;;;8.20;;
40951;SDS011;26682;51.660;19.338;2023-12-20T13:53:06;7.80;;;6.50;;
40951;SDS011;26682;51.660;19.338;2023-12-20T13:55:48;14.13;;;7.13;;
40951;SDS011;26682;51.660;19.338;2023-12-20T13:58:31;12.02;;;6.93;;
40951;SDS011;26682;51.660;19.338;2023-12-20T14:01:17;11.53;;;6.30;;
40951;SDS011;26682;51.660;19.338;2023-12-20T14:04:00;11.55;;;6.53;;
40951;SDS011;26682;51.660;19.338;2023-12-20T14:06:42;14.60;;;8.10;;
40951;SDS011;26682;51.660;19.338;2023-12-20T14:09:25;12.30;;;6.28;;
40951;SDS011;26682;51.660;19.338;2023-12-20T14:12:08;14.70;;;6.50;;
40951;SDS011;26682;51.660;19.338;2023-12-20T14:14:51;8.85;;;6.00;;
40951;SDS011;26682;51.660;19.338;2023-12-20T14:17:33;12.32;;;6.75;;
40951;SDS011;26682;51.660;19.338;2023-12-20T14:20:16;12.32;;;8.32;;
40951;SDS011;26682;51.660;19.338;2023-12-20T14:22:58;12.50;;;6.40;;
40951;SDS011;26682;51.660;19.338;2023-12-20T14:25:41;9.48;;;5.30;;
40951;SDS011;26682;51.660;19.338;2023-12-20T14:28:32;15.10;;;6.35;;
40951;SDS011;26682;51.660;19.338;2023-12-20T14:31:15;11.75;;;6.28;;
40951;SDS011;26682;51.660;19.338;2023-12-20T14:33:58;12.98;;;6.05;;
40951;SDS011;26682;51.660;19.338;2023-12-20T14:36:41;12.48;;;6.13;;
40951;SDS011;26682;51.660;19.338;2023-12-20T14:39:24;13.43;;;5.85;;
40951;SDS011;26682;51.660;19.338;2023-12-20T14:42:09;12.27;;;7.45;;
40951;SDS011;26682;51.660;19.338;2023-12-20T14:44:55;13.18;;;6.85;;
40951;SDS011;26682;51.660;19.338;2023-12-20T14:47:38;17.42;;;8.80;;
40951;SDS011;26682;51.660;19.338;2023-12-20T14:50:21;12.38;;;7.07;;
40951;SDS011;26682;51.660;19.338;2023-12-20T14:53:04;11.05;;;6.20;;
40951;SDS011;26682;51.660;19.338;2023-12-20T14:55:47;9.98;;;6.28;;
40951;SDS011;26682;51.660;19.338;2023-12-20T14:58:30;14.30;;;7.93;;
40951;SDS011;26682;51.660;19.338;2023-12-20T15:01:13;13.45;;;7.28;;
40951;SDS011;26682;51.660;19.338;2023-12-20T15:03:57;14.10;;;5.80;;
40951;SDS011;26682;51.660;19.338;2023-12-20T15:06:39;12.23;;;5.82;;
40951;SDS011;26682;51.660;19.338;2023-12-20T15:09:22;14.00;;;8.85;;
40951;SDS011;26682;51.660;19.338;2023-12-20T15:12:06;15.23;;;5.55;;
40951;SDS011;26682;51.660;19.338;2023-12-20T15:14:50;11.23;;;5.55;;
40951;SDS011;26682;51.660;19.338;2023-12-20T15:17:32;11.35;;;6.60;;
40951;SDS011;26682;51.660;19.338;2023-12-20T15:20:15;10.88;;;5.40;;
40951;SDS011;26682;51.660;19.338;2023-12-20T15:22:58;15.35;;;6.95;;
40951;SDS011;26682;51.660;19.338;2023-12-20T15:25:46;13.82;;;6.80;;
40951;SDS011;26682;51.660;19.338;2023-12-20T15:28:29;17.33;;;8.40;;
40951;SDS011;26682;51.660;19.338;2023-12-20T15:31:12;14.07;;;7.78;;
40951;SDS011;26682;51.660;19.338;2023-12-20T15:33:55;12.93;;;6.15;;
40951;SDS011;26682;51.660;19.338;2023-12-20T15:36:38;13.90;;;7.20;;
40951;SDS011;26682;51.660;19.338;2023-12-20T15:39:23;17.38;;;7.07;;
40951;SDS011;26682;51.660;19.338;2023-12-20T15:42:06;13.70;;;7.55;;
40951;SDS011;26682;51.660;19.338;2023-12-20T15:44:48;8.93;;;5.55;;
40951;SDS011;26682;51.660;19.338;2023-12-20T15:47:31;14.05;;;8.27;;
40951;SDS011;26682;51.660;19.338;2023-12-20T15:50:14;17.80;;;7.10;;
40951;SDS011;26682;51.660;19.338;2023-12-20T15:52:57;21.08;;;10.25;;
40951;SDS011;26682;51.660;19.338;2023-12-20T15:55:39;16.90;;;7.95;;